Terminal Aerodrome Forecast
Issued by NWS

Home | Current Version | Previous Version | Text Only | Print | Product List | Glossary On
Versions: 1 2 3 4 5 6 7 8 9 10 11 12 13 14 15 16 17
000
FTUS45 KBOU 211130
TAFBJC
TAF
KBJC 211130Z 2112/2212 29007KT P6SM FEW150 BKN220
     FM211500 33007KT P6SM FEW150 SCT220
     FM211700 01008KT P6SM FEW100 BKN220
     FM212000 03012KT P6SM SCT100 BKN200
     FM220200 32006KT P6SM SCT090 SCT120 BKN200
     FM221000 33006KT P6SM FEW020 SCT200=

USA.gov is the U.S. government's official web portal to all federal, state and local government web resources and services.